Ana Sayfa
METAR-TAF:

METAR-TAF

Havaalanları :

Red Dog Mine, Alaska, Amerika Birleşik Devletleri

Enlem: 68-01-56N, Boylam: 162-53-57W, yükseklik: 295 m

Güncel hava durumu gözlemi

Rapor saat 22:56 UTC de 7 saat ve 34 dakika önce yapıldı.
Rüzgar kuzey/kuzeydoğudan 17 kt ve 24 kt'a kadar ani rüzgarlar
Sıcaklık 0°C
Nem 55%
Basınç 1013 hPa
Görüş mesafesi: 16.1 km
6000 ft yükseklikte parçalı bulutlu

METAR: PADG 262256Z 02017G24KT 10SM SCT060 M00/M08 A2991

Saat: 22:30 (06:30 UTC)


TAF: eksik

4.000'den fazla havaalanı için hava durumu gözlemleri ve tahminleri (METAR ve TAF raporları).

Kullanılabilir istasyonlar harita üzerinde sarı ve kırmızı noktalarla gösterilir.

İstasyonun adını görmek için fareyi noktanın üzerinde gezdirin.

Sonrasında hava gözlem ve tahminlerini görmek için tıklayın.

Haritayı değiştirmek için: yaklaştırmak için siyah artı işaretli yeşil düğmeye ve uzaklaştırmak için de eksi işaretli düğmeye hızla tıklayın; bitişik haritalar için yeşil okları kullanın.


METAR-TAF: